Seven Sisters, United Kingdom
Current Conditions -  °F | °C
As of 5:20 PM on Friday 31 Oct 2014 (Local Time) from EGLC Reporting Station
Clear Clear  
Wind Chill: 66°   Ceiling: Unl
Heat Index: 66°   Visibility: 6mi
Dew Point: 52°   Wind: 5mph
Humidity: 60%   Direction: 150°SSE
Pressure: 29.97"   Gusts: NA
Location:  51.58°N, 0.09°W
Report Text: EGLC 311720Z 15004KT 110V190 CAVOK 19/11 Q1015
Loading
Personal Weather Stations






























Interactive Weather Map
Tropical Storm Tracking
New forecast layout! Learn more

10-Day Weather Forecast

Advertisements
Track Severe Weather on mobile